createdAt,value
2018-08-10T00:00:33.586Z,100505.41
2018-08-10T00:03:01.760Z,100512.45
2018-08-10T00:05:29.931Z,100503.76
2018-08-10T00:07:58.071Z,100497.27
2018-08-10T00:10:26.160Z,100506.95
2018-08-10T00:12:54.295Z,100497.19
2018-08-10T00:15:22.558Z,100501.59
2018-08-10T00:17:50.722Z,100510.43
2018-08-10T00:20:18.908Z,100513.97
2018-08-10T00:22:46.994Z,100509.16
2018-08-10T00:25:16.999Z,100518.50
2018-08-10T00:27:45.125Z,100513.27
2018-08-10T00:30:15.104Z,100522.83
2018-08-10T00:32:44.803Z,100512.52
2018-08-10T00:35:13.020Z,100514.94
2018-08-10T00:37:41.928Z,100530.95
2018-08-10T00:40:20.283Z,100532.77
2018-08-10T00:42:48.444Z,100530.38
2018-08-10T00:45:20.950Z,100535.67
2018-08-10T00:47:49.448Z,100546.48
2018-08-10T00:50:18.138Z,100546.08
2018-08-10T00:52:46.928Z,100559.04
2018-08-10T00:55:16.138Z,100545.99
2018-08-10T00:57:44.826Z,100550.61
2018-08-10T01:00:21.324Z,100542.95
2018-08-10T01:02:49.539Z,100555.83
2018-08-10T01:05:17.654Z,100550.61
2018-08-10T01:07:45.794Z,100548.72
2018-08-10T01:10:15.969Z,100554.68
2018-08-10T01:12:44.124Z,100551.19
2018-08-10T01:15:13.911Z,100555.08
2018-08-10T01:17:42.204Z,100566.14
2018-08-10T01:20:12.880Z,100560.45
2018-08-10T01:22:47.026Z,100566.05
2018-08-10T01:25:15.134Z,100569.19
2018-08-10T01:27:48.749Z,100567.42
2018-08-10T01:30:16.843Z,100564.64
2018-08-10T01:32:45.140Z,100568.17
2018-08-10T01:35:13.336Z,100575.98
2018-08-10T01:37:41.429Z,100582.31
2018-08-10T01:40:09.579Z,100593.39
2018-08-10T01:42:37.724Z,100582.90
2018-08-10T01:45:06.699Z,100595.20
2018-08-10T01:47:35.003Z,100605.34
2018-08-10T01:50:03.123Z,100603.05
2018-08-10T01:52:31.256Z,100608.69
2018-08-10T01:54:59.375Z,100609.94
2018-08-10T01:57:27.521Z,100611.62
2018-08-10T01:59:55.651Z,100614.98
2018-08-10T02:02:23.805Z,100619.78
2018-08-10T02:04:51.924Z,100628.03
2018-08-10T02:07:20.032Z,100622.88
2018-08-10T02:09:48.177Z,100629.48
2018-08-10T02:12:16.299Z,100632.05
2018-08-10T02:14:44.445Z,100635.05
2018-08-10T02:17:12.667Z,100635.17
2018-08-10T02:19:40.786Z,100634.30
2018-08-10T02:22:08.903Z,100640.64
2018-08-10T02:24:37.098Z,100646.70
2018-08-10T02:27:05.237Z,100656.01
2018-08-10T02:29:33.355Z,100656.09
2018-08-10T02:32:01.479Z,100656.45
2018-08-10T02:34:29.608Z,100659.19
2018-08-10T02:36:57.758Z,100666.02
2018-08-10T02:39:25.936Z,100674.72
2018-08-10T02:41:54.105Z,100659.19
2018-08-10T02:44:22.214Z,100674.67
2018-08-10T02:46:50.344Z,100680.36
2018-08-10T02:49:18.464Z,100686.80
2018-08-10T02:51:46.548Z,100692.30
2018-08-10T02:54:14.656Z,100681.14
2018-08-10T02:56:42.808Z,100691.11
2018-08-10T02:59:10.852Z,100692.70
2018-08-10T03:01:38.937Z,100691.47
2018-08-10T03:04:07.064Z,100693.89
2018-08-10T03:06:35.153Z,100702.19
2018-08-10T03:09:03.288Z,100703.60
2018-08-10T03:11:31.379Z,100709.95
2018-08-10T03:13:59.871Z,100721.52
2018-08-10T03:16:28.051Z,100711.11
2018-08-10T03:18:56.259Z,100721.58
2018-08-10T03:21:24.328Z,100722.19
2018-08-10T03:23:52.452Z,100730.07
2018-08-10T03:26:20.548Z,100719.03
2018-08-10T03:28:48.701Z,100732.36
2018-08-10T03:31:16.771Z,100737.59
2018-08-10T03:33:44.882Z,100746.66
2018-08-10T03:36:13.004Z,100744.89
2018-08-10T03:38:41.127Z,100749.83
2018-08-10T03:41:09.252Z,100743.30
2018-08-10T03:43:37.391Z,100759.22
2018-08-10T03:46:05.564Z,100762.00
2018-08-10T03:48:33.641Z,100758.86
2018-08-10T03:51:01.748Z,100767.19
2018-08-10T03:53:29.864Z,100765.22
2018-08-10T03:55:57.973Z,100774.41
2018-08-10T03:58:26.139Z,100783.92
2018-08-10T04:00:54.331Z,100789.80
2018-08-10T04:03:22.463Z,100788.60
2018-08-10T04:05:50.593Z,100800.13
2018-08-10T04:08:18.698Z,100793.39
2018-08-10T04:10:46.819Z,100800.00
2018-08-10T04:13:15.341Z,100806.27
2018-08-10T04:15:43.459Z,100818.20
2018-08-10T04:18:12.170Z,100815.06
2018-08-10T04:20:40.289Z,100842.72
2018-08-10T04:23:09.478Z,100832.98
2018-08-10T04:25:37.667Z,100838.14
2018-08-10T04:28:05.993Z,100832.23
2018-08-10T04:30:34.122Z,100840.07
2018-08-10T04:33:02.276Z,100849.10
2018-08-10T04:35:30.485Z,100848.14
2018-08-10T04:37:58.620Z,100864.25
2018-08-10T04:40:26.742Z,100862.94
2018-08-10T04:42:54.885Z,100892.02
2018-08-10T04:45:23.027Z,100895.16
2018-08-10T04:47:51.175Z,100899.23
2018-08-10T04:50:19.497Z,100902.47
2018-08-10T04:52:47.688Z,100910.53
2018-08-10T04:55:15.848Z,100927.38
2018-08-10T04:57:44.001Z,100937.95
2018-08-10T05:00:13.953Z,100938.07
2018-08-10T05:02:42.089Z,100956.48
2018-08-10T05:05:11.074Z,100960.11
2018-08-10T05:07:40.165Z,100985.24
2018-08-10T05:10:08.489Z,100992.98
2018-08-10T05:12:36.989Z,100991.66
2018-08-10T05:15:05.875Z,101002.24
2018-08-10T05:17:34.012Z,101000.69
2018-08-10T05:20:02.198Z,101003.20
2018-08-10T05:22:30.311Z,101011.50
2018-08-10T05:24:59.247Z,101020.16
2018-08-10T05:27:27.369Z,101025.09
2018-08-10T05:29:55.568Z,101020.25
2018-08-10T05:32:23.971Z,101028.53
2018-08-10T05:34:52.227Z,101038.40
2018-08-10T05:37:20.534Z,101049.10
2018-08-10T05:39:48.615Z,101061.49
2018-08-10T05:42:16.896Z,101037.92
2018-08-10T05:44:45.092Z,101063.78
2018-08-10T05:47:13.976Z,101069.67
2018-08-10T05:49:42.108Z,101067.59
2018-08-10T05:52:10.230Z,101073.24
2018-08-10T05:54:38.486Z,101082.83
2018-08-10T05:57:06.746Z,101085.27
2018-08-10T05:59:34.950Z,101089.85
2018-08-10T06:02:03.124Z,101090.36
2018-08-10T06:04:31.487Z,101102.17
2018-08-10T06:07:00.466Z,101093.87
2018-08-10T06:09:28.613Z,101106.00
2018-08-10T06:11:56.807Z,101119.59
2018-08-10T06:14:24.972Z,101125.36
2018-08-10T06:16:53.133Z,101120.31
2018-08-10T06:19:21.267Z,101126.38
2018-08-10T06:21:49.441Z,101122.58
2018-08-10T06:24:17.566Z,101124.24
2018-08-10T06:26:45.664Z,101138.03
2018-08-10T06:29:13.792Z,101141.45
2018-08-10T06:31:41.952Z,101144.44
2018-08-10T06:34:10.242Z,101153.40
2018-08-10T06:36:38.338Z,101147.56
2018-08-10T06:53:49.538Z,101176.36
2018-08-10T06:56:17.691Z,101202.28
2018-08-10T06:58:45.835Z,101192.23
2018-08-10T07:01:14.013Z,101203.48
2018-08-10T07:03:42.134Z,101215.05
2018-08-10T07:06:10.262Z,101217.53
2018-08-10T07:08:38.448Z,101227.70
2018-08-10T07:11:06.579Z,101234.45
2018-08-10T07:13:34.768Z,101237.30
2018-08-10T07:16:02.937Z,101235.00
2018-08-10T07:18:31.113Z,101244.31
2018-08-10T07:20:59.206Z,101251.95
2018-08-10T07:23:27.347Z,101249.96
2018-08-10T07:25:55.543Z,101260.45
2018-08-10T07:28:23.683Z,101260.42
2018-08-10T07:30:51.774Z,101261.77
2018-08-10T07:33:19.875Z,101277.34
2018-08-10T07:35:48.017Z,101281.27
2018-08-10T07:38:16.183Z,101282.38
2018-08-10T07:40:44.366Z,101283.36
2018-08-10T07:43:13.352Z,101287.42
2018-08-10T07:45:41.520Z,101286.77
2018-08-10T07:48:09.610Z,101302.20
2018-08-10T07:50:37.944Z,101292.48
2018-08-10T07:53:06.404Z,101294.52
2018-08-10T07:55:34.540Z,101305.33
2018-08-10T07:58:02.686Z,101310.79
2018-08-10T08:00:30.789Z,101322.73
2018-08-10T08:02:58.912Z,101329.22
2018-08-10T08:05:27.038Z,101334.05
2018-08-10T08:07:55.180Z,101327.97
2018-08-10T08:10:24.515Z,101337.67
2018-08-10T08:12:52.601Z,101350.03
2018-08-10T08:15:20.732Z,101346.82
2018-08-10T08:17:48.892Z,101348.33
2018-08-10T08:20:19.101Z,101342.97
2018-08-10T08:25:41.590Z,101363.20
2018-08-10T08:28:09.722Z,101371.77
2018-08-10T08:30:37.852Z,101361.08
2018-08-10T08:33:05.986Z,101364.30
2018-08-10T08:35:34.091Z,101374.41
2018-08-10T08:38:17.461Z,101381.32
2018-08-10T08:40:49.212Z,101391.52
2018-08-10T08:44:34.611Z,101387.77
2018-08-10T08:47:04.156Z,101396.59
2018-08-10T08:49:32.315Z,101392.98
2018-08-10T08:52:00.432Z,101405.39
2018-08-10T08:55:06.641Z,101401.30
2018-08-10T08:57:35.620Z,101411.56
2018-08-10T09:00:08.751Z,101410.67
2018-08-10T09:02:36.883Z,101424.63
2018-08-10T09:05:09.176Z,101424.98
2018-08-10T09:07:37.811Z,101430.98
2018-08-10T09:10:10.898Z,101439.45
2018-08-10T09:12:38.979Z,101444.73
2018-08-10T09:15:09.106Z,101449.61
2018-08-10T09:17:37.353Z,101449.02
2018-08-10T09:20:07.439Z,101452.15
2018-08-10T09:22:35.583Z,101449.46
2018-08-10T09:25:04.737Z,101451.14
2018-08-10T09:27:32.876Z,101444.25
2018-08-10T09:30:00.984Z,101447.22
2018-08-10T09:32:29.128Z,101451.63
2018-08-10T09:34:57.267Z,101454.69
2018-08-10T09:37:25.432Z,101459.19
2018-08-10T09:39:54.426Z,101465.94
2018-08-10T09:42:22.538Z,101478.34
2018-08-10T09:44:50.655Z,101483.11
2018-08-10T09:47:18.773Z,101496.42
2018-08-10T09:49:48.038Z,101494.03
2018-08-10T09:52:16.242Z,101493.69
2018-08-10T09:55:24.538Z,101495.84
2018-08-10T09:57:53.993Z,101501.37
2018-08-10T10:00:27.500Z,101504.05
2018-08-10T10:03:00.866Z,101502.57
2018-08-10T10:05:29.046Z,101510.19
2018-08-10T10:07:57.147Z,101522.25
2018-08-10T10:10:25.374Z,101520.06
2018-08-10T10:12:53.859Z,101519.16
2018-08-10T10:15:22.439Z,101513.69
2018-08-10T10:17:50.635Z,101508.37
2018-08-10T10:20:18.760Z,101512.35
2018-08-10T10:22:47.703Z,101508.55
2018-08-10T10:25:15.812Z,101512.97
2018-08-10T10:27:43.912Z,101523.62
2018-08-10T10:30:12.010Z,101518.99
2018-08-10T10:32:40.170Z,101523.89
2018-08-10T10:35:08.242Z,101519.55
2018-08-10T10:37:36.340Z,101515.56
2018-08-10T10:40:05.362Z,101525.19
2018-08-10T10:42:33.483Z,101526.05
2018-08-10T10:45:01.638Z,101531.05
2018-08-10T10:47:29.837Z,101526.60
2018-08-10T10:49:57.876Z,101525.42
2018-08-10T10:52:25.966Z,101523.87
2018-08-10T10:54:54.120Z,101528.81
2018-08-10T10:57:22.401Z,101525.14
2018-08-10T10:59:50.545Z,101532.28
2018-08-10T11:02:18.681Z,101528.72
2018-08-10T11:04:46.819Z,101537.00
2018-08-10T11:07:14.966Z,101550.19
2018-08-10T11:09:43.116Z,101547.94
2018-08-10T11:12:11.267Z,101553.13
2018-08-10T11:14:39.420Z,101561.70
2018-08-10T11:17:07.592Z,101557.55
2018-08-10T11:19:35.683Z,101558.43
2018-08-10T11:22:03.841Z,101557.91
2018-08-10T11:24:31.996Z,101552.73
2018-08-10T11:27:00.111Z,101559.48
2018-08-10T11:29:28.230Z,101550.39
2018-08-10T11:31:56.392Z,101558.16
2018-08-10T11:34:24.507Z,101551.16
2018-08-10T11:36:52.654Z,101551.41
2018-08-10T11:39:20.740Z,101555.45
2018-08-10T11:41:48.878Z,101552.57
2018-08-10T11:44:16.994Z,101555.54
2018-08-10T11:46:45.112Z,101556.72
2018-08-10T11:49:13.309Z,101563.16
2018-08-10T11:51:41.436Z,101568.98
2018-08-10T11:54:09.528Z,101564.70
2018-08-10T11:56:37.718Z,101560.14
2018-08-10T11:59:05.873Z,101554.61
2018-08-10T12:01:34.009Z,101562.33
2018-08-10T12:04:02.160Z,101554.33
2018-08-10T12:06:30.287Z,101552.52
2018-08-10T12:08:58.377Z,101561.36
2018-08-10T12:11:26.485Z,101555.74
2018-08-10T12:13:54.607Z,101550.56
2018-08-10T12:16:22.715Z,101561.58
2018-08-10T12:18:50.788Z,101551.82
2018-08-10T12:21:21.686Z,101564.59
2018-08-10T12:23:49.851Z,101562.39
2018-08-10T12:26:18.001Z,101566.12
2018-08-10T12:28:46.117Z,101562.84
2018-08-10T12:31:14.227Z,101556.72
2018-08-10T12:33:42.362Z,101574.08
2018-08-10T12:36:10.545Z,101575.80
2018-08-10T12:38:39.309Z,101577.71
2018-08-10T12:41:07.423Z,101577.96
2018-08-10T12:43:35.578Z,101580.00
2018-08-10T12:46:03.725Z,101580.50
2018-08-10T12:48:31.832Z,101590.28
2018-08-10T12:50:59.964Z,101584.56
2018-08-10T12:53:28.173Z,101580.08
2018-08-10T12:55:56.344Z,101574.67
2018-08-10T12:58:24.499Z,101582.77
2018-08-10T13:00:52.615Z,101583.65
2018-08-10T13:03:20.749Z,101584.38
2018-08-10T13:05:48.896Z,101580.98
2018-08-10T13:08:17.058Z,101578.97
2018-08-10T13:10:45.240Z,101573.77
2018-08-10T13:13:13.352Z,101569.15
2018-08-10T13:15:41.516Z,101570.19
2018-08-10T13:18:09.902Z,101568.41
2018-08-10T13:20:38.057Z,101568.69
2018-08-10T13:23:06.205Z,101559.69
2018-08-10T13:25:34.368Z,101560.92
2018-08-10T13:28:02.511Z,101553.52
2018-08-10T13:30:30.643Z,101556.19
2018-08-10T13:32:58.795Z,101557.41
2018-08-10T13:35:26.968Z,101549.56
2018-08-10T13:37:55.310Z,101546.98
2018-08-10T13:40:23.437Z,101550.48
2018-08-10T13:42:51.520Z,101544.48
2018-08-10T13:45:19.671Z,101545.87
2018-08-10T13:47:47.823Z,101541.11
2018-08-10T13:50:16.726Z,101540.51
2018-08-10T13:52:45.380Z,101548.36
2018-08-10T13:55:23.017Z,101557.82
2018-08-10T13:57:51.231Z,101558.70
2018-08-10T14:00:23.415Z,101550.95
2018-08-10T14:02:53.156Z,101551.09
2018-08-10T14:05:21.906Z,101554.95
2018-08-10T14:07:50.361Z,101553.50
2018-08-10T14:10:18.522Z,101556.22
2018-08-10T14:12:46.808Z,101554.31
2018-08-10T14:15:14.998Z,101560.94
2018-08-10T14:17:43.321Z,101554.12
2018-08-10T14:20:14.095Z,101551.11
2018-08-10T14:22:42.277Z,101558.48
2018-08-10T14:25:11.107Z,101558.83
2018-08-10T14:27:39.346Z,101566.88
2018-08-10T14:30:10.135Z,101561.76
2018-08-10T14:32:38.563Z,101561.12
2018-08-10T14:35:06.961Z,101565.75
2018-08-10T14:37:36.072Z,101567.58
2018-08-10T14:40:04.850Z,101573.61
2018-08-10T14:42:33.050Z,101573.91
2018-08-10T14:45:01.269Z,101582.47
2018-08-10T14:47:29.405Z,101597.58
2018-08-10T14:49:57.535Z,101601.61
2018-08-10T14:52:25.627Z,101609.41
2018-08-10T14:54:53.776Z,101605.10
2018-08-10T14:57:21.884Z,101599.69
2018-08-10T14:59:50.077Z,101596.67
2018-08-10T15:02:18.218Z,101597.98
2018-08-10T15:04:46.592Z,101598.07
2018-08-10T15:07:15.828Z,101601.04
2018-08-10T15:09:44.049Z,101593.75
2018-08-10T15:12:12.385Z,101590.23
2018-08-10T15:15:17.540Z,101586.95
2018-08-10T15:17:46.128Z,101585.50
2018-08-10T15:20:18.031Z,101579.41
2018-08-10T15:22:46.409Z,101570.93
2018-08-10T15:25:14.534Z,101579.51
2018-08-10T15:27:43.339Z,101576.36
2018-08-10T15:30:13.779Z,101578.18
2018-08-10T15:32:42.253Z,101576.22
2018-08-10T15:35:11.113Z,101580.22
2018-08-10T15:37:39.219Z,101576.94
2018-08-10T15:40:10.423Z,101576.72
2018-08-10T15:42:38.768Z,101572.69
2018-08-10T15:45:09.520Z,101569.11
2018-08-10T15:47:37.668Z,101570.73
2018-08-10T15:50:06.314Z,101571.86
2018-08-10T15:52:34.428Z,101581.36
2018-08-10T15:55:02.535Z,101601.41
2018-08-10T15:57:30.603Z,101603.02
2018-08-10T15:59:59.388Z,101614.69
2018-08-10T16:02:27.569Z,101612.72
2018-08-10T16:04:55.751Z,101612.81
2018-08-10T16:07:30.663Z,101618.13
2018-08-10T16:09:59.695Z,101626.39
2018-08-10T16:12:29.230Z,101628.49
2018-08-10T16:14:57.459Z,101628.35
2018-08-10T16:17:25.729Z,101620.58
2018-08-10T16:19:53.916Z,101627.48
2018-08-10T16:22:22.062Z,101619.27
2018-08-10T16:24:50.155Z,101615.69
2018-08-10T16:27:18.266Z,101613.06
2018-08-10T16:29:46.347Z,101623.08
2018-08-10T16:32:14.451Z,101620.42
2018-08-10T16:34:42.536Z,101617.80
2018-08-10T16:37:10.615Z,101616.69
2018-08-10T16:39:38.767Z,101615.57
2018-08-10T16:42:06.849Z,101611.02
2018-08-10T16:44:35.020Z,101609.33
2018-08-10T16:47:03.044Z,101615.33
2018-08-10T16:49:31.119Z,101607.48
2018-08-10T16:51:59.247Z,101601.80
2018-08-10T16:54:27.384Z,101604.95
2018-08-10T16:56:55.545Z,101599.42
2018-08-10T16:59:23.677Z,101589.77
2018-08-10T17:01:51.773Z,101594.50
2018-08-10T17:04:19.883Z,101596.33
2018-08-10T17:06:47.976Z,101590.64
2018-08-10T17:09:16.082Z,101595.69
2018-08-10T17:11:44.253Z,101601.44
2018-08-10T17:14:12.413Z,101598.44
2018-08-10T17:16:40.505Z,101602.63
2018-08-10T17:19:08.661Z,101598.78
2018-08-10T17:21:36.760Z,101599.61
2018-08-10T17:24:04.858Z,101592.30
2018-08-10T17:26:33.011Z,101597.61
2018-08-10T17:29:01.112Z,101595.79
2018-08-10T17:31:29.276Z,101596.74
2018-08-10T17:33:57.885Z,101595.19
2018-08-10T17:36:26.158Z,101603.14
2018-08-10T17:38:54.276Z,101597.70
2018-08-10T17:41:22.402Z,101594.79
2018-08-10T17:43:50.513Z,101598.33
2018-08-10T17:46:19.303Z,101599.64
2018-08-10T17:48:47.430Z,101599.30
2018-08-10T17:51:15.499Z,101598.20
2018-08-10T17:53:43.679Z,101602.78
2018-08-10T17:56:11.780Z,101600.14
2018-08-10T17:58:39.945Z,101605.40
2018-08-10T18:01:07.991Z,101599.47
2018-08-10T18:03:36.113Z,101594.19
2018-08-10T18:06:04.351Z,101594.98
2018-08-10T18:08:32.437Z,101594.11
2018-08-10T18:11:00.524Z,101600.03
2018-08-10T18:13:28.615Z,101593.61
2018-08-10T18:15:56.678Z,101592.95
2018-08-10T18:18:24.765Z,101590.31
2018-08-10T18:20:52.916Z,101589.83
2018-08-10T18:23:21.122Z,101577.66
2018-08-10T18:25:49.228Z,101581.66
2018-08-10T18:28:17.361Z,101587.18
2018-08-10T18:30:45.494Z,101583.43
2018-08-10T18:33:13.600Z,101590.25
2018-08-10T18:35:41.704Z,101590.91
2018-08-10T18:38:09.818Z,101595.45
2018-08-10T18:40:37.936Z,101596.56
2018-08-10T18:43:06.202Z,101599.73
2018-08-10T18:45:34.932Z,101602.36
2018-08-10T18:48:03.047Z,101605.12
2018-08-10T18:50:31.215Z,101597.69
2018-08-10T18:52:59.247Z,101597.34
2018-08-10T18:55:27.346Z,101600.69
2018-08-10T18:57:55.450Z,101599.27
2018-08-10T19:00:25.235Z,101601.48
2018-08-10T19:02:53.591Z,101605.77
2018-08-10T19:05:21.725Z,101608.30
2018-08-10T19:07:50.114Z,101611.33
2018-08-10T19:10:22.082Z,101609.67
2018-08-10T19:12:50.183Z,101609.91
2018-08-10T19:15:18.344Z,101602.19
2018-08-10T19:17:46.487Z,101605.14
2018-08-10T19:20:15.131Z,101605.34
2018-08-10T19:22:43.255Z,101595.11
2018-08-10T19:25:12.445Z,101596.42
2018-08-10T19:27:40.535Z,101597.64
2018-08-10T19:30:12.650Z,101596.16
2018-08-10T19:32:40.833Z,101602.38
2018-08-10T19:35:09.711Z,101607.23
2018-08-10T19:37:38.318Z,101610.59
2018-08-10T19:40:08.110Z,101609.25
2018-08-10T19:42:36.385Z,101603.17
2018-08-10T19:45:05.863Z,101601.41
2018-08-10T19:47:34.098Z,101613.86
2018-08-10T19:50:02.203Z,101608.12
2018-08-10T19:52:30.480Z,101607.52
2018-08-10T19:54:58.656Z,101611.75
2018-08-10T19:57:26.749Z,101603.51
2018-08-10T19:59:54.882Z,101608.64
2018-08-10T20:02:22.974Z,101607.70
2018-08-10T20:04:51.120Z,101594.75
2018-08-10T20:07:19.226Z,101600.98
2018-08-10T20:09:47.320Z,101596.59
2018-08-10T20:12:15.396Z,101598.12
2018-08-10T20:14:44.072Z,101598.81
2018-08-10T20:17:12.648Z,101600.38
2018-08-10T20:19:40.736Z,101593.92
2018-08-10T20:22:13.600Z,101590.44
2018-08-10T20:24:41.741Z,101596.13
2018-08-10T20:27:10.609Z,101589.50
2018-08-10T20:29:38.862Z,101583.16
2018-08-10T20:32:07.037Z,101578.10
2018-08-10T20:34:35.136Z,101580.36
2018-08-10T20:37:03.242Z,101577.88
2018-08-10T20:39:31.365Z,101571.47
2018-08-10T20:41:59.464Z,101570.44
2018-08-10T20:44:27.535Z,101572.08
2018-08-10T20:46:55.612Z,101563.38
2018-08-10T20:49:23.703Z,101565.64
2018-08-10T20:51:51.840Z,101563.56
2018-08-10T20:54:19.992Z,101562.52
2018-08-10T20:56:48.117Z,101562.91
2018-08-10T20:59:16.718Z,101560.08
2018-08-10T21:01:45.123Z,101563.64
2018-08-10T21:04:13.247Z,101563.07
2018-08-10T21:06:41.357Z,101554.03
2018-08-10T21:09:11.696Z,101550.84
2018-08-10T21:11:40.185Z,101553.56
2018-08-10T21:14:08.306Z,101546.96
2018-08-10T21:16:36.518Z,101548.66
2018-08-10T21:19:04.619Z,101548.67
2018-08-10T21:21:32.704Z,101549.15
2018-08-10T21:24:00.808Z,101549.80
2018-08-10T21:26:28.964Z,101540.94
2018-08-10T21:28:57.009Z,101540.00
2018-08-10T21:31:25.108Z,101535.20
2018-08-10T21:33:53.238Z,101534.39
2018-08-10T21:36:21.347Z,101536.73
2018-08-10T21:38:49.485Z,101534.19
2018-08-10T21:41:17.571Z,101533.77
2018-08-10T21:43:45.665Z,101530.41
2018-08-10T21:46:13.768Z,101532.05
2018-08-10T21:48:41.860Z,101531.31
2018-08-10T21:51:09.972Z,101529.50
2018-08-10T21:53:38.154Z,101528.37
2018-08-10T21:56:06.204Z,101527.61
2018-08-10T21:58:34.319Z,101526.80
2018-08-10T22:01:03.547Z,101532.98
2018-08-10T22:03:32.394Z,101524.06
2018-08-10T22:06:00.516Z,101525.50
2018-08-10T22:08:28.644Z,101522.66
2018-08-10T22:10:56.748Z,101520.23
2018-08-10T22:13:30.309Z,101522.69
2018-08-10T22:16:03.722Z,101527.48
2018-08-10T22:18:37.482Z,101530.95
2018-08-10T22:21:05.549Z,101523.79
2018-08-10T22:23:33.645Z,101516.01
2018-08-10T22:26:01.786Z,101513.28
2018-08-10T22:28:29.919Z,101512.81
2018-08-10T22:30:58.024Z,101507.08
2018-08-10T22:33:26.130Z,101508.88
2018-08-10T22:35:54.281Z,101507.73
2018-08-10T22:38:22.359Z,101505.11
2018-08-10T22:40:50.494Z,101506.62
2018-08-10T22:43:18.607Z,101502.20
2018-08-10T22:45:46.727Z,101501.55
2018-08-10T22:48:14.838Z,101500.98
2018-08-10T22:50:42.903Z,101493.27
2018-08-10T22:53:11.194Z,101492.30
2018-08-10T22:55:39.291Z,101488.36
2018-08-10T22:58:07.413Z,101484.53
2018-08-10T23:00:35.572Z,101476.81
2018-08-10T23:03:03.731Z,101475.30
2018-08-10T23:05:31.783Z,101477.56
2018-08-10T23:07:59.963Z,101474.72
2018-08-10T23:10:28.134Z,101466.45
2018-08-10T23:12:56.269Z,101466.36
2018-08-10T23:15:24.376Z,101462.69
2018-08-10T23:17:53.039Z,101456.76
2018-08-10T23:20:21.145Z,101455.34
2018-08-10T23:22:49.280Z,101449.14
2018-08-10T23:25:17.392Z,101451.50
2018-08-10T23:27:45.473Z,101443.21
2018-08-10T23:30:14.680Z,101438.22
2018-08-10T23:32:43.141Z,101434.17
2018-08-10T23:35:11.275Z,101434.27
2018-08-10T23:37:39.412Z,101431.55
2018-08-10T23:40:10.068Z,101428.28
2018-08-10T23:42:38.471Z,101430.23
2018-08-10T23:45:07.961Z,101425.43
2018-08-10T23:47:36.036Z,101412.58
2018-08-10T23:50:05.438Z,101420.16
2018-08-10T23:52:33.539Z,101414.72
2018-08-10T23:55:01.564Z,101418.20
2018-08-10T23:57:29.694Z,101403.42
2018-08-10T23:59:57.782Z,101406.44
